createdAt,value
2018-04-07T00:01:11.852Z,3.67
2018-04-07T00:03:41.744Z,4.05
2018-04-07T00:06:10.801Z,3.92
2018-04-07T00:08:40.645Z,3.87
2018-04-07T00:11:09.774Z,5.60
2018-04-07T00:13:39.625Z,3.75
2018-04-07T00:16:08.897Z,3.58
2018-04-07T00:18:37.991Z,3.83
2018-04-07T00:21:07.817Z,3.95
2018-04-07T00:23:37.673Z,3.33
2018-04-07T00:26:06.737Z,4.03
2018-04-07T00:28:35.905Z,3.10
2018-04-07T00:31:04.981Z,3.85
2018-04-07T00:33:34.814Z,3.35
2018-04-07T00:36:03.909Z,3.30
2018-04-07T00:38:33.782Z,3.67
2018-04-07T00:41:02.846Z,3.70
2018-04-07T00:43:32.676Z,4.07
2018-04-07T00:46:01.795Z,3.55
2018-04-07T00:48:31.631Z,4.18
2018-04-07T00:51:00.742Z,4.28
2018-04-07T00:53:29.805Z,3.92
2018-04-07T00:55:58.868Z,4.45
2018-04-07T00:58:28.006Z,4.45
2018-04-07T01:00:57.317Z,3.85
2018-04-07T01:03:26.383Z,4.43
2018-04-07T01:05:56.229Z,4.62
2018-04-07T01:08:25.298Z,3.80
2018-04-07T01:10:54.393Z,4.68
2018-04-07T01:13:23.457Z,4.10
2018-04-07T01:15:52.530Z,3.83
2018-04-07T01:18:21.621Z,4.60
2018-04-07T01:20:50.967Z,4.10
2018-04-07T01:23:20.073Z,3.78
2018-04-07T01:25:49.243Z,4.70
2018-04-07T01:28:18.317Z,4.00
2018-04-07T01:30:47.462Z,5.60
2018-04-07T01:33:16.616Z,4.07
2018-04-07T01:35:45.682Z,4.53
2018-04-07T01:38:14.742Z,4.10
2018-04-07T01:40:44.573Z,3.80
2018-04-07T01:43:14.398Z,4.30
2018-04-07T01:45:44.229Z,3.85
2018-04-07T01:48:14.123Z,4.03
2018-04-07T01:50:43.214Z,4.03
2018-04-07T01:53:12.269Z,4.28
2018-04-07T01:55:42.130Z,3.75
2018-04-07T01:58:11.196Z,4.07
2018-04-07T02:00:40.271Z,4.30
2018-04-07T02:03:10.108Z,4.18
2018-04-07T02:05:39.173Z,3.70
2018-04-07T02:08:09.064Z,4.80
2018-04-07T02:10:38.125Z,4.45
2018-04-07T02:13:07.191Z,4.25
2018-04-07T02:15:36.257Z,4.47
2018-04-07T02:18:05.331Z,5.20
2018-04-07T02:20:35.165Z,3.83
2018-04-07T02:23:04.997Z,4.82
2018-04-07T02:25:34.057Z,3.67
2018-04-07T02:28:03.123Z,4.78
2018-04-07T02:30:32.990Z,5.03
2018-04-07T02:33:02.055Z,4.40
2018-04-07T02:35:31.119Z,4.85
2018-04-07T02:38:00.202Z,5.07
2018-04-07T02:40:29.266Z,4.20
2018-04-07T02:42:59.106Z,4.25
2018-04-07T02:45:28.162Z,4.50
2018-04-07T02:47:57.225Z,4.60
2018-04-07T02:50:26.324Z,4.50
2018-04-07T02:52:56.161Z,5.07
2018-04-07T02:55:25.226Z,5.20
2018-04-07T02:57:54.330Z,3.83
2018-04-07T03:00:23.389Z,5.60
2018-04-07T03:02:52.506Z,6.15
2018-04-07T03:05:21.569Z,4.55
2018-04-07T03:07:50.665Z,5.32
2018-04-07T03:10:19.730Z,4.35
2018-04-07T03:12:49.619Z,4.90
2018-04-07T03:15:18.694Z,5.57
2018-04-07T03:17:47.829Z,5.18
2018-04-07T03:20:16.938Z,4.78
2018-04-07T03:22:46.006Z,5.18
2018-04-07T03:25:15.069Z,5.40
2018-04-07T03:27:44.133Z,5.35
2018-04-07T03:30:13.195Z,5.80
2018-04-07T03:32:42.305Z,5.15
2018-04-07T03:35:11.365Z,5.95
2018-04-07T03:37:40.436Z,5.87
2018-04-07T03:40:10.271Z,5.37
2018-04-07T03:42:40.141Z,4.90
2018-04-07T03:45:09.210Z,5.72
2018-04-07T03:47:39.122Z,4.65
2018-04-07T03:50:08.195Z,5.78
2018-04-07T03:52:37.253Z,5.60
2018-04-07T03:55:07.114Z,5.20
2018-04-07T03:57:36.179Z,5.62
2018-04-07T04:00:05.309Z,5.70
2018-04-07T04:02:35.141Z,5.93
2018-04-07T04:05:04.258Z,5.80
2018-04-07T04:07:33.334Z,6.12
2018-04-07T04:10:02.406Z,6.40
2018-04-07T04:12:31.475Z,5.93
2018-04-07T04:15:01.338Z,7.20
2018-04-07T04:17:30.405Z,5.90
2018-04-07T04:20:00.242Z,6.20
2018-04-07T04:22:29.374Z,5.70
2018-04-07T04:24:58.438Z,6.80
2018-04-07T04:27:27.509Z,5.78
2018-04-07T04:29:56.582Z,7.75
2018-04-07T04:32:26.414Z,6.12
2018-04-07T04:34:56.274Z,6.37
2018-04-07T04:37:25.333Z,7.60
2018-04-07T04:39:55.374Z,6.95
2018-04-07T04:42:25.215Z,6.37
2018-04-07T04:44:54.442Z,6.07
2018-04-07T04:47:23.538Z,6.18
2018-04-07T04:49:52.599Z,5.90
2018-04-07T04:52:21.662Z,7.15
2018-04-07T04:54:50.726Z,6.07
2018-04-07T04:57:20.129Z,6.80
2018-04-07T04:59:49.242Z,6.00
2018-04-07T05:02:18.318Z,7.30
2018-04-07T05:04:47.378Z,5.93
2018-04-07T05:07:16.447Z,7.45
2018-04-07T05:09:45.514Z,6.53
2018-04-07T05:12:15.343Z,7.53
2018-04-07T05:14:45.171Z,6.68
2018-04-07T05:17:15.004Z,6.65
2018-04-07T05:19:44.127Z,6.70
2018-04-07T05:22:13.238Z,7.07
2018-04-07T05:24:43.054Z,7.22
2018-04-07T05:27:12.894Z,6.53
2018-04-07T05:29:42.109Z,6.85
2018-04-07T05:32:11.186Z,7.32
2018-04-07T05:34:40.263Z,6.53
2018-04-07T05:37:09.333Z,6.90
2018-04-07T05:39:38.402Z,6.90
2018-04-07T05:42:07.472Z,6.85
2018-04-07T05:44:36.573Z,6.45
2018-04-07T05:47:05.695Z,7.57
2018-04-07T05:49:34.762Z,6.82
2018-04-07T05:52:04.594Z,6.65
2018-04-07T05:54:34.429Z,6.90
2018-04-07T05:57:04.347Z,7.62
2018-04-07T05:59:34.192Z,6.55
2018-04-07T06:02:03.262Z,6.35
2018-04-07T06:04:32.577Z,5.60
2018-04-07T06:07:01.641Z,6.95
2018-04-07T06:09:30.711Z,7.28
2018-04-07T06:12:00.555Z,6.65
2018-04-07T06:14:30.397Z,6.72
2018-04-07T06:16:59.471Z,7.00
2018-04-07T06:19:28.538Z,5.93
2018-04-07T06:21:57.607Z,6.35
2018-04-07T06:24:27.442Z,7.45
2018-04-07T06:26:56.553Z,5.80
2018-04-07T06:29:25.625Z,7.03
2018-04-07T06:31:54.686Z,6.60
2018-04-07T06:34:23.749Z,6.85
2018-04-07T06:36:52.813Z,6.87
2018-04-07T06:39:21.896Z,6.85
2018-04-07T06:41:51.803Z,6.10
2018-04-07T06:44:20.867Z,5.50
2018-04-07T06:46:49.938Z,5.30
2018-04-07T06:49:19.764Z,6.22
2018-04-07T06:51:49.605Z,5.35
2018-04-07T06:54:18.689Z,5.35
2018-04-07T06:56:47.809Z,6.00
2018-04-07T06:59:17.634Z,6.07
2018-04-07T07:01:47.467Z,5.90
2018-04-07T07:04:17.298Z,6.35
2018-04-07T07:06:47.257Z,6.25
2018-04-07T07:09:16.357Z,6.00
2018-04-07T07:11:45.425Z,6.00
2018-04-07T07:14:14.495Z,6.03
2018-04-07T07:16:43.626Z,6.37
2018-04-07T07:19:13.457Z,4.90
2018-04-07T07:21:42.555Z,6.82
2018-04-07T07:24:11.703Z,6.50
2018-04-07T07:26:40.750Z,6.18
2018-04-07T07:29:09.814Z,5.62
2018-04-07T07:31:38.887Z,6.15
2018-04-07T07:34:07.961Z,6.57
2018-04-07T07:36:37.801Z,6.55
2018-04-07T07:39:06.870Z,6.80
2018-04-07T07:41:35.946Z,5.90
2018-04-07T07:44:05.015Z,6.75
2018-04-07T07:46:34.145Z,6.72
2018-04-07T07:49:03.472Z,5.65
2018-04-07T07:51:32.579Z,6.15
2018-04-07T07:54:01.645Z,6.18
2018-04-07T07:56:31.554Z,5.37
2018-04-07T07:59:00.626Z,6.15
2018-04-07T08:01:29.698Z,5.12
2018-04-07T08:03:59.601Z,5.12
2018-04-07T08:06:28.693Z,6.30
2018-04-07T08:08:57.818Z,5.60
2018-04-07T08:11:26.901Z,4.87
2018-04-07T08:13:55.978Z,5.95
2018-04-07T08:16:25.125Z,5.72
2018-04-07T08:18:54.289Z,5.65
2018-04-07T08:21:24.142Z,5.70
2018-04-07T08:23:53.249Z,6.10
2018-04-07T08:26:22.334Z,5.97
2018-04-07T08:28:52.178Z,5.50
2018-04-07T08:31:21.257Z,5.80
2018-04-07T08:33:50.353Z,5.03
2018-04-07T08:36:19.445Z,7.00
2018-04-07T08:38:48.535Z,5.20
2018-04-07T08:41:17.630Z,5.50
2018-04-07T08:43:46.718Z,5.37
2018-04-07T08:46:16.683Z,5.85
2018-04-07T08:48:45.819Z,5.07
2018-04-07T08:51:14.930Z,5.40
2018-04-07T08:53:44.050Z,5.60
2018-04-07T08:56:14.661Z,6.50
2018-04-07T08:58:43.840Z,6.10
2018-04-07T09:01:13.704Z,5.40
2018-04-07T09:03:42.789Z,6.20
2018-04-07T09:06:12.641Z,6.00
2018-04-07T09:08:41.761Z,5.23
2018-04-07T09:11:10.843Z,5.40
2018-04-07T09:13:39.944Z,6.17
2018-04-07T09:16:09.816Z,6.27
2018-04-07T09:18:38.902Z,6.13
2018-04-07T09:21:07.974Z,5.33
2018-04-07T09:23:37.119Z,5.47
2018-04-07T09:26:06.198Z,5.17
2018-04-07T09:28:35.273Z,5.50
2018-04-07T09:31:09.837Z,5.27
2018-04-07T09:33:38.977Z,6.17
2018-04-07T09:36:08.826Z,5.43
2018-04-07T09:38:37.909Z,6.00
2018-04-07T09:41:07.846Z,5.30
2018-04-07T09:43:37.682Z,5.00
2018-04-07T09:46:06.758Z,5.70
2018-04-07T09:48:35.841Z,4.67
2018-04-07T09:51:04.925Z,5.40
2018-04-07T09:53:34.002Z,5.83
2018-04-07T09:56:03.850Z,5.47
2018-04-07T09:58:33.045Z,5.30
2018-04-07T10:01:02.888Z,5.43
2018-04-07T10:03:32.026Z,5.33
2018-04-07T10:06:01.106Z,5.80
2018-04-07T10:08:30.254Z,6.20
2018-04-07T10:10:59.338Z,5.90
2018-04-07T10:13:28.417Z,5.73
2018-04-07T10:15:58.262Z,6.00
2018-04-07T10:18:28.100Z,6.07
2018-04-07T10:20:57.181Z,5.70
2018-04-07T10:23:26.273Z,5.90
2018-04-07T10:25:56.353Z,5.50
2018-04-07T10:28:25.497Z,5.33
2018-04-07T10:30:54.578Z,6.60
2018-04-07T10:33:23.657Z,4.93
2018-04-07T10:35:53.498Z,4.63
2018-04-07T10:38:23.875Z,6.20
2018-04-07T10:40:53.085Z,5.07
2018-04-07T10:43:22.170Z,5.00
2018-04-07T10:45:51.287Z,6.20
2018-04-07T10:48:20.425Z,6.00
2018-04-07T10:50:49.506Z,5.60
2018-04-07T10:53:18.633Z,6.37
2018-04-07T10:55:47.705Z,6.23
2018-04-07T10:58:17.553Z,5.37
2018-04-07T11:00:46.626Z,6.30
2018-04-07T11:03:15.702Z,5.97
2018-04-07T11:05:44.773Z,5.80
2018-04-07T11:08:14.658Z,4.93
2018-04-07T11:10:43.766Z,6.03
2018-04-07T11:13:12.909Z,5.50
2018-04-07T11:15:42.761Z,5.73
2018-04-07T11:18:11.833Z,5.23
2018-04-07T11:20:40.946Z,5.80
2018-04-07T11:23:10.070Z,5.10
2018-04-07T11:25:39.913Z,5.40
2018-04-07T11:28:09.754Z,6.10
2018-04-07T11:30:39.111Z,4.87
2018-04-07T11:33:08.198Z,5.27
2018-04-07T11:35:37.274Z,5.80
2018-04-07T11:38:07.174Z,5.37
2018-04-07T11:40:36.259Z,5.70
2018-04-07T11:43:05.369Z,5.40
2018-04-07T11:45:34.445Z,6.50
2018-04-07T11:48:03.519Z,5.30
2018-04-07T11:50:32.589Z,4.73
2018-04-07T11:53:01.661Z,5.43
2018-04-07T11:55:31.505Z,4.80
2018-04-07T11:58:00.582Z,4.60
2018-04-07T12:00:29.702Z,4.70
2018-04-07T12:02:59.544Z,5.30
2018-04-07T12:05:28.617Z,4.77
2018-04-07T12:07:57.690Z,4.50
2018-04-07T12:10:26.757Z,4.50
2018-04-07T12:12:56.597Z,5.97
2018-04-07T12:15:26.429Z,4.80
2018-04-07T12:17:55.506Z,5.23
2018-04-07T12:20:25.349Z,5.17
2018-04-07T12:22:55.237Z,4.87
2018-04-07T12:25:24.301Z,4.10
2018-04-07T12:27:54.147Z,5.40
2018-04-07T12:30:23.250Z,4.80
2018-04-07T12:32:52.349Z,4.80
2018-04-07T12:35:22.188Z,4.20
2018-04-07T12:37:51.418Z,4.07
2018-04-07T12:40:20.523Z,4.33
2018-04-07T12:42:49.647Z,4.50
2018-04-07T12:45:18.721Z,4.33
2018-04-07T12:47:48.564Z,4.43
2018-04-07T12:50:17.697Z,4.20
2018-04-07T12:52:46.769Z,5.23
2018-04-07T12:55:16.671Z,5.13
2018-04-07T12:57:45.749Z,5.40
2018-04-07T13:00:14.877Z,4.50
2018-04-07T13:02:43.954Z,4.60
2018-04-07T13:05:13.062Z,3.90
2018-04-07T13:07:42.129Z,4.63
2018-04-07T13:10:11.224Z,3.97
2018-04-07T13:12:40.380Z,4.20
2018-04-07T13:15:09.674Z,3.67
2018-04-07T13:17:39.546Z,3.73
2018-04-07T13:20:08.661Z,4.57
2018-04-07T13:22:37.733Z,4.57
2018-04-07T13:25:07.626Z,4.13
2018-04-07T13:27:36.765Z,3.87
2018-04-07T13:30:06.614Z,4.47
2018-04-07T13:32:35.681Z,3.57
2018-04-07T13:35:04.774Z,4.00
2018-04-07T13:37:33.885Z,3.63
2018-04-07T13:40:02.965Z,3.67
2018-04-07T13:42:32.042Z,3.90
2018-04-07T13:45:01.947Z,5.97
2018-04-07T13:47:31.079Z,4.40
2018-04-07T13:50:00.913Z,3.83
2018-04-07T13:52:30.806Z,4.23
2018-04-07T13:54:59.926Z,3.60
2018-04-07T13:57:28.997Z,3.80
2018-04-07T13:59:58.098Z,3.47
2018-04-07T14:02:27.171Z,2.60
2018-04-07T14:04:56.302Z,3.67
2018-04-07T14:07:26.143Z,3.40
2018-04-07T14:09:55.270Z,3.60
2018-04-07T14:12:24.353Z,3.13
2018-04-07T14:14:53.421Z,3.10
2018-04-07T14:17:22.549Z,3.10
2018-04-07T14:19:51.641Z,3.20
2018-04-07T14:22:20.796Z,3.23
2018-04-07T14:24:49.862Z,2.40
2018-04-07T14:27:18.929Z,2.97
2018-04-07T14:29:48.112Z,3.40
2018-04-07T14:32:17.963Z,3.77
2018-04-07T14:34:47.038Z,2.60
2018-04-07T14:37:16.106Z,3.37
2018-04-07T14:39:45.181Z,4.23
2018-04-07T14:42:15.072Z,3.30
2018-04-07T14:44:44.236Z,3.77
2018-04-07T14:47:13.309Z,3.17
2018-04-07T14:49:42.467Z,5.00
2018-04-07T14:52:11.546Z,35.60
2018-04-07T14:54:41.381Z,6.27
2018-04-07T14:57:11.208Z,4.70
2018-04-07T14:59:41.197Z,18.10
2018-04-07T15:02:10.281Z,3.77
2018-04-07T15:04:39.354Z,3.33
2018-04-07T15:07:09.186Z,4.20
2018-04-07T15:09:39.072Z,5.87
2018-04-07T15:12:08.159Z,9.37
2018-04-07T15:14:37.233Z,3.70
2018-04-07T15:17:07.069Z,5.90
2018-04-07T15:19:36.137Z,4.53
2018-04-07T15:22:05.267Z,6.33
2018-04-07T15:24:35.102Z,5.93
2018-04-07T15:27:04.993Z,6.70
2018-04-07T15:29:34.066Z,5.20
2018-04-07T15:32:03.139Z,4.07
2018-04-07T15:34:32.978Z,3.40
2018-04-07T15:37:02.913Z,3.87
2018-04-07T15:39:32.746Z,3.90
2018-04-07T15:42:01.821Z,6.33
2018-04-07T15:44:30.926Z,6.90
2018-04-07T15:47:00.005Z,3.83
2018-04-07T15:49:29.108Z,5.40
2018-04-07T15:51:58.178Z,5.60
2018-04-07T15:54:28.014Z,5.03
2018-04-07T15:56:57.887Z,11.00
2018-04-07T15:59:26.961Z,6.70
2018-04-07T16:01:56.076Z,8.97
2018-04-07T16:04:25.157Z,7.43
2018-04-07T16:06:54.237Z,5.50
2018-04-07T16:09:23.322Z,6.70
2018-04-07T16:11:52.401Z,3.90
2018-04-07T16:14:22.240Z,5.23
2018-04-07T16:16:51.356Z,7.43
2018-04-07T16:19:20.421Z,4.77
2018-04-07T16:21:49.494Z,4.57
2018-04-07T16:24:18.571Z,4.63
2018-04-07T16:26:48.406Z,5.30
2018-04-07T16:29:18.290Z,5.20
2018-04-07T16:31:47.365Z,3.60
2018-04-07T16:34:16.443Z,4.33
2018-04-07T16:36:46.278Z,3.63
2018-04-07T16:39:16.131Z,4.60
2018-04-07T16:41:45.253Z,4.20
2018-04-07T16:44:14.321Z,4.07
2018-04-07T16:46:43.415Z,4.00
2018-04-07T16:49:13.289Z,5.40
2018-04-07T16:51:42.362Z,4.10
2018-04-07T16:54:12.201Z,4.67
2018-04-07T16:56:42.038Z,5.30
2018-04-07T16:59:11.117Z,5.57
2018-04-07T17:01:40.267Z,5.33
2018-04-07T17:04:09.351Z,5.90
2018-04-07T17:06:39.195Z,4.80
2018-04-07T17:09:08.292Z,6.67
2018-04-07T17:11:38.134Z,13.13
2018-04-07T17:14:07.211Z,9.80
2018-04-07T17:16:36.289Z,8.13
2018-04-07T17:19:05.423Z,9.77
2018-04-07T17:21:34.510Z,6.87
2018-04-07T17:24:03.689Z,14.57
2018-04-07T17:26:32.774Z,6.80
2018-04-07T17:29:02.613Z,19.20
2018-04-07T17:31:31.721Z,47.57
2018-04-07T17:34:01.570Z,65.40
2018-04-07T17:36:30.717Z,14.30
2018-04-07T17:38:59.799Z,10.90
2018-04-07T17:41:28.878Z,8.37
2018-04-07T17:43:58.718Z,8.33
2018-04-07T17:46:27.829Z,8.77
2018-04-07T17:49:05.991Z,11.50
2018-04-07T17:51:26.021Z,9.80
2018-04-07T17:53:55.125Z,8.53
2018-04-07T17:56:24.217Z,8.40
2018-04-07T17:58:53.365Z,8.70
2018-04-07T18:01:23.202Z,8.70
2018-04-07T18:03:53.134Z,9.60
2018-04-07T18:06:22.218Z,10.00
2018-04-07T18:08:51.309Z,11.97
2018-04-07T18:11:20.387Z,9.57
2018-04-07T18:13:49.457Z,9.40
2018-04-07T18:16:19.326Z,12.03
2018-04-07T18:18:48.742Z,11.57
2018-04-07T18:21:18.417Z,11.57
2018-04-07T18:23:48.272Z,11.60
2018-04-07T18:26:17.370Z,11.70
2018-04-07T18:28:47.243Z,12.10
2018-04-07T18:31:16.338Z,12.50
2018-04-07T18:33:45.454Z,13.40
2018-04-07T18:36:14.615Z,14.30
2018-04-07T18:38:44.476Z,17.43
2018-04-07T18:41:13.561Z,19.00
2018-04-07T18:43:43.405Z,18.10
2018-04-07T18:46:12.494Z,18.03
2018-04-07T18:48:42.346Z,16.10
2018-04-07T18:51:11.501Z,16.47
2018-04-07T18:53:40.590Z,15.43
2018-04-07T18:56:09.681Z,14.70
2018-04-07T18:58:38.770Z,12.30
2018-04-07T19:01:08.654Z,13.07
2018-04-07T19:03:37.738Z,12.10
2018-04-07T19:06:06.918Z,12.13
2018-04-07T19:08:36.769Z,11.30
2018-04-07T19:11:05.853Z,11.37
2018-04-07T19:13:34.946Z,11.40
2018-04-07T19:16:04.029Z,11.60
2018-04-07T19:18:33.117Z,12.30
2018-04-07T19:21:02.238Z,13.43
2018-04-07T19:23:31.393Z,14.97
2018-04-07T19:26:00.514Z,15.20
2018-04-07T19:28:30.362Z,14.90
2018-04-07T19:30:59.449Z,14.33
2018-04-07T19:33:29.298Z,13.47
2018-04-07T19:35:58.419Z,13.07
2018-04-07T19:38:28.261Z,13.07
2018-04-07T19:40:57.341Z,13.57
2018-04-07T19:43:26.423Z,12.40
2018-04-07T19:45:55.533Z,13.00
2018-04-07T19:48:24.675Z,12.03
2018-04-07T19:50:55.230Z,12.73
2018-04-07T19:53:24.316Z,12.40
2018-04-07T19:55:54.169Z,12.37
2018-04-07T19:58:23.533Z,10.80
2018-04-07T20:00:52.613Z,12.13
2018-04-07T20:03:21.751Z,11.47
2018-04-07T20:05:50.839Z,12.20
2018-04-07T20:08:20.746Z,13.27
2018-04-07T20:10:49.830Z,12.40
2018-04-07T20:13:19.685Z,12.43
2018-04-07T20:15:48.818Z,12.00
2018-04-07T20:18:17.908Z,11.27
2018-04-07T20:20:46.989Z,12.60
2018-04-07T20:23:16.846Z,14.03
2018-04-07T20:25:45.962Z,14.23
2018-04-07T20:28:15.058Z,16.03
2018-04-07T20:30:44.209Z,15.70
2018-04-07T20:33:13.293Z,15.50
2018-04-07T20:35:42.442Z,15.37
2018-04-07T20:38:11.530Z,14.97
2018-04-07T20:40:40.671Z,13.60
2018-04-07T20:43:14.665Z,14.57
2018-04-07T20:45:43.823Z,14.47
2018-04-07T20:48:13.825Z,14.30
2018-04-07T20:50:42.914Z,14.73
2018-04-07T20:53:12.065Z,14.83
2018-04-07T20:55:41.149Z,14.90
2018-04-07T20:58:10.233Z,14.57
2018-04-07T21:00:39.314Z,15.33
2018-04-07T21:03:09.170Z,15.60
2018-04-07T21:05:38.264Z,15.27
2018-04-07T21:08:08.146Z,14.27
2018-04-07T21:10:37.261Z,13.80
2018-04-07T21:13:06.473Z,15.60
2018-04-07T21:15:35.822Z,15.47
2018-04-07T21:18:05.675Z,13.60
2018-04-07T21:20:34.902Z,13.10
2018-04-07T21:23:04.021Z,15.10
2018-04-07T21:25:33.106Z,15.73
2018-04-07T21:28:02.262Z,14.07
2018-04-07T21:30:31.349Z,13.50
2018-04-07T21:33:00.434Z,14.43
2018-04-07T21:35:29.560Z,13.10
2018-04-07T21:37:58.629Z,14.40
2018-04-07T21:40:28.516Z,13.57
2018-04-07T21:42:57.597Z,11.93
2018-04-07T21:45:26.681Z,12.83
2018-04-07T21:47:56.581Z,13.87
2018-04-07T21:50:25.673Z,14.07
2018-04-07T21:52:54.765Z,14.47
2018-04-07T21:55:23.890Z,14.53
2018-04-07T21:57:52.978Z,14.20
2018-04-07T22:00:22.137Z,13.00
2018-04-07T22:02:51.225Z,14.00
2018-04-07T22:05:20.305Z,12.83
2018-04-07T22:07:49.429Z,14.80
2018-04-07T22:10:18.523Z,13.00
2018-04-07T22:12:47.732Z,12.97
2018-04-07T22:15:16.859Z,14.33
2018-04-07T22:17:45.945Z,12.87
2018-04-07T22:20:15.909Z,13.93
2018-04-07T22:22:45.000Z,13.30
2018-04-07T22:25:14.142Z,13.13
2018-04-07T22:27:43.230Z,13.50
2018-04-07T22:30:12.369Z,13.37
2018-04-07T22:32:41.433Z,12.00
2018-04-07T22:35:10.576Z,12.45
2018-04-07T22:37:39.657Z,12.67
2018-04-07T22:40:08.751Z,14.60
2018-04-07T22:42:38.642Z,13.67
2018-04-07T22:45:07.734Z,12.77
2018-04-07T22:47:36.817Z,12.83
2018-04-07T22:50:06.062Z,13.00
2018-04-07T22:52:35.154Z,12.65
2018-04-07T22:55:04.247Z,13.90
2018-04-07T22:57:33.339Z,13.50
2018-04-07T23:00:03.530Z,13.13
2018-04-07T23:02:32.623Z,13.13
2018-04-07T23:05:01.717Z,14.05
2018-04-07T23:07:30.853Z,14.47
2018-04-07T23:09:59.994Z,14.15
2018-04-07T23:12:29.093Z,15.63
2018-04-07T23:14:58.182Z,18.75
2018-04-07T23:17:27.300Z,17.23
2018-04-07T23:19:56.405Z,16.85
2018-04-07T23:22:25.594Z,14.57
2018-04-07T23:24:54.686Z,13.50
2018-04-07T23:27:24.545Z,12.73
2018-04-07T23:29:53.642Z,11.15
2018-04-07T23:32:22.734Z,11.63
2018-04-07T23:34:52.633Z,11.00
2018-04-07T23:37:21.730Z,11.32
2018-04-07T23:39:50.821Z,11.43
2018-04-07T23:42:19.913Z,11.10
2018-04-07T23:44:49.010Z,11.67
2018-04-07T23:47:18.890Z,11.35
2018-04-07T23:49:47.985Z,10.68
2018-04-07T23:52:17.102Z,11.38
2018-04-07T23:54:46.241Z,12.10
2018-04-07T23:57:15.630Z,9.48
2018-04-07T23:59:44.709Z,9.38
